sensor_id;sensor_type;location;lat;lon;timestamp;P1;P2;P0
60816;PMS5003;51921;51.518;-3.188;2023-03-25T00:01:30;8;5;
60816;PMS5003;51921;51.518;-3.188;2023-03-25T00:03:56;9;5;
60816;PMS5003;51921;51.518;-3.188;2023-03-25T00:06:21;5;5;
60816;PMS5003;51921;51.518;-3.188;2023-03-25T00:08:47;6;6;
60816;PMS5003;51921;51.518;-3.188;2023-03-25T00:11:12;5;5;
60816;PMS5003;51921;51.518;-3.188;2023-03-25T00:13:37;7;5;
60816;PMS5003;51921;51.518;-3.188;2023-03-25T00:16:03;5;4;
60816;PMS5003;51921;51.518;-3.188;2023-03-25T00:18:29;7;5;
60816;PMS5003;51921;51.518;-3.188;2023-03-25T00:20:53;6;4;
60816;PMS5003;51921;51.518;-3.188;2023-03-25T00:23:19;4;3;
60816;PMS5003;51921;51.518;-3.188;2023-03-25T00:25:44;4;4;
60816;PMS5003;51921;51.518;-3.188;2023-03-25T00:28:09;5;4;
60816;PMS5003;51921;51.518;-3.188;2023-03-25T00:30:36;3;2;
60816;PMS5003;51921;51.518;-3.188;2023-03-25T00:33:00;0;0;
60816;PMS5003;51921;51.518;-3.188;2023-03-25T00:35:26;5;3;
60816;PMS5003;51921;51.518;-3.188;2023-03-25T00:37:51;4;3;
60816;PMS5003;51921;51.518;-3.188;2023-03-25T00:40:17;5;4;
60816;PMS5003;51921;51.518;-3.188;2023-03-25T00:42:42;10;5;
60816;PMS5003;51921;51.518;-3.188;2023-03-25T00:45:08;5;4;
60816;PMS5003;51921;51.518;-3.188;2023-03-25T00:47:33;5;5;
60816;PMS5003;51921;51.518;-3.188;2023-03-25T00:49:59;7;5;
60816;PMS5003;51921;51.518;-3.188;2023-03-25T00:52:24;6;6;
60816;PMS5003;51921;51.518;-3.188;2023-03-25T00:54:50;7;5;
60816;PMS5003;51921;51.518;-3.188;2023-03-25T00:57:15;7;6;
60816;PMS5003;51921;51.518;-3.188;2023-03-25T00:59:40;10;5;
60816;PMS5003;51921;51.518;-3.188;2023-03-25T01:02:05;8;6;
60816;PMS5003;51921;51.518;-3.188;2023-03-25T01:04:31;12;10;
60816;PMS5003;51921;51.518;-3.188;2023-03-25T01:06:56;11;7;
60816;PMS5003;51921;51.518;-3.188;2023-03-25T01:09:22;11;9;
60816;PMS5003;51921;51.518;-3.188;2023-03-25T01:11:47;13;9;
60816;PMS5003;51921;51.518;-3.188;2023-03-25T01:14:13;10;6;
60816;PMS5003;51921;51.518;-3.188;2023-03-25T01:16:38;9;7;
60816;PMS5003;51921;51.518;-3.188;2023-03-25T01:19:03;10;7;
60816;PMS5003;51921;51.518;-3.188;2023-03-25T01:21:29;12;10;
60816;PMS5003;51921;51.518;-3.188;2023-03-25T01:23:54;8;6;
60816;PMS5003;51921;51.518;-3.188;2023-03-25T01:26:19;8;7;
60816;PMS5003;51921;51.518;-3.188;2023-03-25T01:28:44;14;8;
60816;PMS5003;51921;51.518;-3.188;2023-03-25T01:31:11;9;7;
60816;PMS5003;51921;51.518;-3.188;2023-03-25T01:33:35;9;7;
60816;PMS5003;51921;51.518;-3.188;2023-03-25T01:36:00;8;5;
60816;PMS5003;51921;51.518;-3.188;2023-03-25T01:38:26;7;5;
60816;PMS5003;51921;51.518;-3.188;2023-03-25T01:40:51;11;7;
60816;PMS5003;51921;51.518;-3.188;2023-03-25T01:43:17;5;5;
60816;PMS5003;51921;51.518;-3.188;2023-03-25T01:45:42;9;7;
60816;PMS5003;51921;51.518;-3.188;2023-03-25T01:48:08;7;6;
60816;PMS5003;51921;51.518;-3.188;2023-03-25T01:50:33;8;7;
60816;PMS5003;51921;51.518;-3.188;2023-03-25T01:53:00;15;9;
60816;PMS5003;51921;51.518;-3.188;2023-03-25T01:55:24;8;6;
60816;PMS5003;51921;51.518;-3.188;2023-03-25T01:57:50;7;6;
60816;PMS5003;51921;51.518;-3.188;2023-03-25T02:00:15;8;7;
60816;PMS5003;51921;51.518;-3.188;2023-03-25T02:02:41;11;8;
60816;PMS5003;51921;51.518;-3.188;2023-03-25T02:05:07;12;8;
60816;PMS5003;51921;51.518;-3.188;2023-03-25T02:07:32;9;7;
60816;PMS5003;51921;51.518;-3.188;2023-03-25T02:09:58;15;9;
60816;PMS5003;51921;51.518;-3.188;2023-03-25T02:12:23;8;7;
60816;PMS5003;51921;51.518;-3.188;2023-03-25T02:14:48;8;7;
60816;PMS5003;51921;51.518;-3.188;2023-03-25T02:17:15;12;9;
60816;PMS5003;51921;51.518;-3.188;2023-03-25T02:22:12;12;10;
60816;PMS5003;51921;51.518;-3.188;2023-03-25T02:24:36;11;9;
60816;PMS5003;51921;51.518;-3.188;2023-03-25T02:27:00;10;9;
60816;PMS5003;51921;51.518;-3.188;2023-03-25T02:29:23;11;9;
60816;PMS5003;51921;51.518;-3.188;2023-03-25T02:31:49;12;11;
60816;PMS5003;51921;51.518;-3.188;2023-03-25T02:34:20;17;12;
60816;PMS5003;51921;51.518;-3.188;2023-03-25T02:36:50;13;10;
60816;PMS5003;51921;51.518;-3.188;2023-03-25T02:39:02;14;9;
60816;PMS5003;51921;51.518;-3.188;2023-03-25T02:41:29;11;8;
60816;PMS5003;51921;51.518;-3.188;2023-03-25T02:43:54;7;5;
60816;PMS5003;51921;51.518;-3.188;2023-03-25T02:46:19;11;10;
60816;PMS5003;51921;51.518;-3.188;2023-03-25T02:48:47;8;7;
60816;PMS5003;51921;51.518;-3.188;2023-03-25T02:51:11;8;7;
60816;PMS5003;51921;51.518;-3.188;2023-03-25T02:53:36;9;6;
60816;PMS5003;51921;51.518;-3.188;2023-03-25T02:56:02;19;14;
60816;PMS5003;51921;51.518;-3.188;2023-03-25T02:58:26;6;5;
60816;PMS5003;51921;51.518;-3.188;2023-03-25T03:00:51;12;10;
60816;PMS5003;51921;51.518;-3.188;2023-03-25T03:03:17;10;9;
60816;PMS5003;51921;51.518;-3.188;2023-03-25T03:05:42;10;9;
60816;PMS5003;51921;51.518;-3.188;2023-03-25T03:08:13;12;8;
60816;PMS5003;51921;51.518;-3.188;2023-03-25T03:10:35;12;10;
60816;PMS5003;51921;51.518;-3.188;2023-03-25T03:13:00;6;3;
60816;PMS5003;51921;51.518;-3.188;2023-03-25T03:15:26;12;10;
60816;PMS5003;51921;51.518;-3.188;2023-03-25T03:17:52;8;7;
60816;PMS5003;51921;51.518;-3.188;2023-03-25T03:20:16;15;9;
60816;PMS5003;51921;51.518;-3.188;2023-03-25T03:22:41;7;7;
60816;PMS5003;51921;51.518;-3.188;2023-03-25T03:25:08;9;8;
60816;PMS5003;51921;51.518;-3.188;2023-03-25T03:27:32;10;7;
60816;PMS5003;51921;51.518;-3.188;2023-03-25T03:29:58;9;7;
60816;PMS5003;51921;51.518;-3.188;2023-03-25T03:32:25;7;6;
60816;PMS5003;51921;51.518;-3.188;2023-03-25T03:34:47;8;6;
60816;PMS5003;51921;51.518;-3.188;2023-03-25T03:37:14;11;9;
60816;PMS5003;51921;51.518;-3.188;2023-03-25T03:39:38;10;7;
60816;PMS5003;51921;51.518;-3.188;2023-03-25T03:42:05;13;10;
60816;PMS5003;51921;51.518;-3.188;2023-03-25T03:44:30;11;8;
60816;PMS5003;51921;51.518;-3.188;2023-03-25T03:46:56;6;5;
60816;PMS5003;51921;51.518;-3.188;2023-03-25T03:49:22;11;9;
60816;PMS5003;51921;51.518;-3.188;2023-03-25T03:51:46;11;8;
60816;PMS5003;51921;51.518;-3.188;2023-03-25T03:54:12;11;9;
60816;PMS5003;51921;51.518;-3.188;2023-03-25T03:56:37;10;7;
60816;PMS5003;51921;51.518;-3.188;2023-03-25T03:59:01;11;6;
60816;PMS5003;51921;51.518;-3.188;2023-03-25T04:01:28;12;10;
60816;PMS5003;51921;51.518;-3.188;2023-03-25T04:03:52;12;7;
60816;PMS5003;51921;51.518;-3.188;2023-03-25T04:06:18;12;8;
60816;PMS5003;51921;51.518;-3.188;2023-03-25T04:08:45;8;7;
60816;PMS5003;51921;51.518;-3.188;2023-03-25T04:11:09;8;7;
60816;PMS5003;51921;51.518;-3.188;2023-03-25T04:13:34;11;10;
60816;PMS5003;51921;51.518;-3.188;2023-03-25T04:15:58;10;7;
60816;PMS5003;51921;51.518;-3.188;2023-03-25T04:18:24;10;7;
60816;PMS5003;51921;51.518;-3.188;2023-03-25T04:20:49;11;8;
60816;PMS5003;51921;51.518;-3.188;2023-03-25T04:23:15;9;8;
60816;PMS5003;51921;51.518;-3.188;2023-03-25T04:25:40;12;10;
60816;PMS5003;51921;51.518;-3.188;2023-03-25T04:28:05;13;9;
60816;PMS5003;51921;51.518;-3.188;2023-03-25T04:30:31;11;8;
60816;PMS5003;51921;51.518;-3.188;2023-03-25T04:32:57;8;7;
60816;PMS5003;51921;51.518;-3.188;2023-03-25T04:35:22;9;7;
60816;PMS5003;51921;51.518;-3.188;2023-03-25T04:37:47;8;4;
60816;PMS5003;51921;51.518;-3.188;2023-03-25T04:40:13;7;6;
60816;PMS5003;51921;51.518;-3.188;2023-03-25T04:42:39;10;7;
60816;PMS5003;51921;51.518;-3.188;2023-03-25T04:45:04;11;7;
60816;PMS5003;51921;51.518;-3.188;2023-03-25T04:47:29;9;7;
60816;PMS5003;51921;51.518;-3.188;2023-03-25T04:49:55;8;7;
60816;PMS5003;51921;51.518;-3.188;2023-03-25T04:52:20;10;5;
60816;PMS5003;51921;51.518;-3.188;2023-03-25T04:54:46;7;5;
60816;PMS5003;51921;51.518;-3.188;2023-03-25T04:57:11;7;7;
60816;PMS5003;51921;51.518;-3.188;2023-03-25T04:59:36;11;7;
60816;PMS5003;51921;51.518;-3.188;2023-03-25T05:02:02;10;8;
60816;PMS5003;51921;51.518;-3.188;2023-03-25T05:04:27;12;8;
60816;PMS5003;51921;51.518;-3.188;2023-03-25T05:06:53;7;6;
60816;PMS5003;51921;51.518;-3.188;2023-03-25T05:09:19;7;6;
60816;PMS5003;51921;51.518;-3.188;2023-03-25T05:11:45;8;4;
60816;PMS5003;51921;51.518;-3.188;2023-03-25T05:14:11;8;5;
60816;PMS5003;51921;51.518;-3.188;2023-03-25T05:16:35;7;5;
60816;PMS5003;51921;51.518;-3.188;2023-03-25T05:19:01;6;5;
60816;PMS5003;51921;51.518;-3.188;2023-03-25T05:21:26;6;6;
60816;PMS5003;51921;51.518;-3.188;2023-03-25T05:23:52;6;5;
60816;PMS5003;51921;51.518;-3.188;2023-03-25T05:26:17;6;4;
60816;PMS5003;51921;51.518;-3.188;2023-03-25T05:28:43;5;5;
60816;PMS5003;51921;51.518;-3.188;2023-03-25T05:31:08;5;3;
60816;PMS5003;51921;51.518;-3.188;2023-03-25T05:33:35;4;4;
60816;PMS5003;51921;51.518;-3.188;2023-03-25T05:36:00;11;5;
60816;PMS5003;51921;51.518;-3.188;2023-03-25T05:38:25;12;7;
60816;PMS5003;51921;51.518;-3.188;2023-03-25T05:40:51;8;7;
60816;PMS5003;51921;51.518;-3.188;2023-03-25T05:43:17;11;8;
60816;PMS5003;51921;51.518;-3.188;2023-03-25T05:45:42;6;6;
60816;PMS5003;51921;51.518;-3.188;2023-03-25T05:48:08;6;5;
60816;PMS5003;51921;51.518;-3.188;2023-03-25T05:50:34;6;5;
60816;PMS5003;51921;51.518;-3.188;2023-03-25T05:52:59;9;4;
60816;PMS5003;51921;51.518;-3.188;2023-03-25T05:55:24;7;7;
60816;PMS5003;51921;51.518;-3.188;2023-03-25T05:57:49;15;14;
60816;PMS5003;51921;51.518;-3.188;2023-03-25T06:00:15;13;11;
60816;PMS5003;51921;51.518;-3.188;2023-03-25T06:02:40;8;7;
60816;PMS5003;51921;51.518;-3.188;2023-03-25T06:05:06;11;7;
60816;PMS5003;51921;51.518;-3.188;2023-03-25T06:07:31;11;9;
60816;PMS5003;51921;51.518;-3.188;2023-03-25T06:09:56;9;8;
60816;PMS5003;51921;51.518;-3.188;2023-03-25T06:12:22;9;7;
60816;PMS5003;51921;51.518;-3.188;2023-03-25T06:14:48;10;9;
60816;PMS5003;51921;51.518;-3.188;2023-03-25T06:17:13;10;8;
60816;PMS5003;51921;51.518;-3.188;2023-03-25T06:19:39;11;7;
60816;PMS5003;51921;51.518;-3.188;2023-03-25T06:22:05;12;10;
60816;PMS5003;51921;51.518;-3.188;2023-03-25T06:24:29;9;8;
60816;PMS5003;51921;51.518;-3.188;2023-03-25T06:26:55;12;11;
60816;PMS5003;51921;51.518;-3.188;2023-03-25T06:29:20;10;8;
60816;PMS5003;51921;51.518;-3.188;2023-03-25T06:31:45;11;8;
60816;PMS5003;51921;51.518;-3.188;2023-03-25T06:34:11;10;8;
60816;PMS5003;51921;51.518;-3.188;2023-03-25T06:36:36;9;8;
60816;PMS5003;51921;51.518;-3.188;2023-03-25T06:39:02;15;11;
60816;PMS5003;51921;51.518;-3.188;2023-03-25T06:41:27;10;8;
60816;PMS5003;51921;51.518;-3.188;2023-03-25T06:43:52;10;10;
60816;PMS5003;51921;51.518;-3.188;2023-03-25T06:46:18;7;4;
60816;PMS5003;51921;51.518;-3.188;2023-03-25T06:48:43;9;9;
60816;PMS5003;51921;51.518;-3.188;2023-03-25T06:51:08;14;9;
60816;PMS5003;51921;51.518;-3.188;2023-03-25T06:53:33;9;7;
60816;PMS5003;51921;51.518;-3.188;2023-03-25T06:55:59;11;7;
60816;PMS5003;51921;51.518;-3.188;2023-03-25T06:58:24;11;9;
60816;PMS5003;51921;51.518;-3.188;2023-03-25T07:00:52;17;11;
60816;PMS5003;51921;51.518;-3.188;2023-03-25T07:03:15;9;6;
60816;PMS5003;51921;51.518;-3.188;2023-03-25T07:05:40;11;8;
60816;PMS5003;51921;51.518;-3.188;2023-03-25T07:08:06;9;8;
60816;PMS5003;51921;51.518;-3.188;2023-03-25T07:10:31;5;4;
60816;PMS5003;51921;51.518;-3.188;2023-03-25T07:12:56;8;7;
60816;PMS5003;51921;51.518;-3.188;2023-03-25T07:15:22;9;9;
60816;PMS5003;51921;51.518;-3.188;2023-03-25T07:17:47;7;5;
60816;PMS5003;51921;51.518;-3.188;2023-03-25T07:20:12;5;4;
60816;PMS5003;51921;51.518;-3.188;2023-03-25T07:22:37;11;8;
60816;PMS5003;51921;51.518;-3.188;2023-03-25T07:25:03;12;8;
60816;PMS5003;51921;51.518;-3.188;2023-03-25T07:27:28;16;10;
60816;PMS5003;51921;51.518;-3.188;2023-03-25T07:29:54;12;10;
60816;PMS5003;51921;51.518;-3.188;2023-03-25T07:32:19;10;8;
60816;PMS5003;51921;51.518;-3.188;2023-03-25T07:34:44;8;5;
60816;PMS5003;51921;51.518;-3.188;2023-03-25T07:37:10;6;5;
60816;PMS5003;51921;51.518;-3.188;2023-03-25T07:39:35;7;7;
60816;PMS5003;51921;51.518;-3.188;2023-03-25T07:42:01;8;4;
60816;PMS5003;51921;51.518;-3.188;2023-03-25T07:44:27;8;7;
60816;PMS5003;51921;51.518;-3.188;2023-03-25T07:46:52;10;7;
60816;PMS5003;51921;51.518;-3.188;2023-03-25T07:49:18;6;6;
60816;PMS5003;51921;51.518;-3.188;2023-03-25T07:51:43;11;7;
60816;PMS5003;51921;51.518;-3.188;2023-03-25T07:54:09;6;5;
60816;PMS5003;51921;51.518;-3.188;2023-03-25T07:56:35;7;7;
60816;PMS5003;51921;51.518;-3.188;2023-03-25T07:59:00;13;9;
60816;PMS5003;51921;51.518;-3.188;2023-03-25T08:01:26;14;12;
60816;PMS5003;51921;51.518;-3.188;2023-03-25T08:03:52;6;5;
60816;PMS5003;51921;51.518;-3.188;2023-03-25T08:06:17;8;7;
60816;PMS5003;51921;51.518;-3.188;2023-03-25T08:08:42;10;8;
60816;PMS5003;51921;51.518;-3.188;2023-03-25T08:11:08;6;4;
60816;PMS5003;51921;51.518;-3.188;2023-03-25T08:13:33;5;4;
60816;PMS5003;51921;51.518;-3.188;2023-03-25T08:15:59;13;9;
60816;PMS5003;51921;51.518;-3.188;2023-03-25T08:18:24;8;5;
60816;PMS5003;51921;51.518;-3.188;2023-03-25T08:20:50;9;5;
60816;PMS5003;51921;51.518;-3.188;2023-03-25T08:23:15;6;5;
60816;PMS5003;51921;51.518;-3.188;2023-03-25T08:25:41;8;6;
60816;PMS5003;51921;51.518;-3.188;2023-03-25T08:28:07;7;5;
60816;PMS5003;51921;51.518;-3.188;2023-03-25T08:30:32;10;7;
60816;PMS5003;51921;51.518;-3.188;2023-03-25T08:32:58;9;7;
60816;PMS5003;51921;51.518;-3.188;2023-03-25T08:35:23;8;5;
60816;PMS5003;51921;51.518;-3.188;2023-03-25T08:37:48;7;5;
60816;PMS5003;51921;51.518;-3.188;2023-03-25T08:40:13;4;4;
60816;PMS5003;51921;51.518;-3.188;2023-03-25T08:42:39;5;4;
60816;PMS5003;51921;51.518;-3.188;2023-03-25T08:45:05;5;5;
60816;PMS5003;51921;51.518;-3.188;2023-03-25T08:47:30;7;4;
60816;PMS5003;51921;51.518;-3.188;2023-03-25T08:49:55;8;7;
60816;PMS5003;51921;51.518;-3.188;2023-03-25T08:52:21;6;5;
60816;PMS5003;51921;51.518;-3.188;2023-03-25T08:54:46;6;4;
60816;PMS5003;51921;51.518;-3.188;2023-03-25T08:57:12;6;5;
60816;PMS5003;51921;51.518;-3.188;2023-03-25T08:59:37;8;5;
60816;PMS5003;51921;51.518;-3.188;2023-03-25T09:02:02;9;6;
60816;PMS5003;51921;51.518;-3.188;2023-03-25T09:04:28;12;10;
60816;PMS5003;51921;51.518;-3.188;2023-03-25T09:06:53;10;7;
60816;PMS5003;51921;51.518;-3.188;2023-03-25T09:09:18;6;5;
60816;PMS5003;51921;51.518;-3.188;2023-03-25T09:11:44;11;9;
60816;PMS5003;51921;51.518;-3.188;2023-03-25T09:14:09;7;5;
60816;PMS5003;51921;51.518;-3.188;2023-03-25T09:16:35;7;6;
60816;PMS5003;51921;51.518;-3.188;2023-03-25T09:19:01;5;4;
60816;PMS5003;51921;51.518;-3.188;2023-03-25T09:21:26;7;7;
60816;PMS5003;51921;51.518;-3.188;2023-03-25T09:23:52;12;9;
60816;PMS5003;51921;51.518;-3.188;2023-03-25T09:26:17;6;5;
60816;PMS5003;51921;51.518;-3.188;2023-03-25T09:28:43;8;7;
60816;PMS5003;51921;51.518;-3.188;2023-03-25T09:31:08;7;5;
60816;PMS5003;51921;51.518;-3.188;2023-03-25T09:33:33;8;7;
60816;PMS5003;51921;51.518;-3.188;2023-03-25T09:35:58;5;5;
60816;PMS5003;51921;51.518;-3.188;2023-03-25T09:38:24;6;4;
60816;PMS5003;51921;51.518;-3.188;2023-03-25T09:40:49;5;4;
60816;PMS5003;51921;51.518;-3.188;2023-03-25T09:43:20;8;7;
60816;PMS5003;51921;51.518;-3.188;2023-03-25T09:45:40;6;5;
60816;PMS5003;51921;51.518;-3.188;2023-03-25T09:48:10;7;6;
60816;PMS5003;51921;51.518;-3.188;2023-03-25T09:50:32;6;2;
60816;PMS5003;51921;51.518;-3.188;2023-03-25T09:52:57;7;6;
60816;PMS5003;51921;51.518;-3.188;2023-03-25T09:55:23;5;4;
60816;PMS5003;51921;51.518;-3.188;2023-03-25T09:57:47;5;3;
60816;PMS5003;51921;51.518;-3.188;2023-03-25T10:00:16;6;4;
60816;PMS5003;51921;51.518;-3.188;2023-03-25T10:02:38;4;4;
60816;PMS5003;51921;51.518;-3.188;2023-03-25T10:05:11;7;6;
60816;PMS5003;51921;51.518;-3.188;2023-03-25T10:07:33;4;3;
60816;PMS5003;51921;51.518;-3.188;2023-03-25T10:09:56;5;4;
60816;PMS5003;51921;51.518;-3.188;2023-03-25T10:12:25;5;4;
60816;PMS5003;51921;51.518;-3.188;2023-03-25T10:14:48;6;3;
60816;PMS5003;51921;51.518;-3.188;2023-03-25T10:17:13;6;5;
60816;PMS5003;51921;51.518;-3.188;2023-03-25T10:19:40;7;4;
60816;PMS5003;51921;51.518;-3.188;2023-03-25T10:22:02;5;3;
60816;PMS5003;51921;51.518;-3.188;2023-03-25T10:24:28;3;3;
60816;PMS5003;51921;51.518;-3.188;2023-03-25T10:26:53;6;4;
60816;PMS5003;51921;51.518;-3.188;2023-03-25T10:29:18;7;4;
60816;PMS5003;51921;51.518;-3.188;2023-03-25T10:31:46;5;4;
60816;PMS5003;51921;51.518;-3.188;2023-03-25T10:34:10;5;4;
60816;PMS5003;51921;51.518;-3.188;2023-03-25T10:36:35;9;5;
60816;PMS5003;51921;51.518;-3.188;2023-03-25T10:39:00;3;3;
60816;PMS5003;51921;51.518;-3.188;2023-03-25T10:41:26;4;4;
60816;PMS5003;51921;51.518;-3.188;2023-03-25T10:43:50;5;4;
60816;PMS5003;51921;51.518;-3.188;2023-03-25T10:46:17;4;2;
60816;PMS5003;51921;51.518;-3.188;2023-03-25T10:48:41;5;4;
60816;PMS5003;51921;51.518;-3.188;2023-03-25T10:51:08;6;3;
60816;PMS5003;51921;51.518;-3.188;2023-03-25T10:53:32;3;2;
60816;PMS5003;51921;51.518;-3.188;2023-03-25T10:56:00;3;2;
60816;PMS5003;51921;51.518;-3.188;2023-03-25T10:58:23;1;1;
60816;PMS5003;51921;51.518;-3.188;2023-03-25T11:00:48;3;1;
60816;PMS5003;51921;51.518;-3.188;2023-03-25T11:03:15;5;2;
60816;PMS5003;51921;51.518;-3.188;2023-03-25T11:05:39;3;1;
60816;PMS5003;51921;51.518;-3.188;2023-03-25T11:08:07;6;6;
60816;PMS5003;51921;51.518;-3.188;2023-03-25T11:10:31;4;3;
60816;PMS5003;51921;51.518;-3.188;2023-03-25T11:12:56;4;3;
60816;PMS5003;51921;51.518;-3.188;2023-03-25T11:15:22;1;1;
60816;PMS5003;51921;51.518;-3.188;2023-03-25T11:17:47;1;1;
60816;PMS5003;51921;51.518;-3.188;2023-03-25T11:20:16;5;3;
60816;PMS5003;51921;51.518;-3.188;2023-03-25T11:22:38;3;1;
60816;PMS5003;51921;51.518;-3.188;2023-03-25T11:25:05;4;3;
60816;PMS5003;51921;51.518;-3.188;2023-03-25T11:27:29;4;3;
60816;PMS5003;51921;51.518;-3.188;2023-03-25T11:29:55;4;2;
60816;PMS5003;51921;51.518;-3.188;2023-03-25T11:32:22;2;2;
60816;PMS5003;51921;51.518;-3.188;2023-03-25T11:34:46;2;2;
60816;PMS5003;51921;51.518;-3.188;2023-03-25T11:37:14;4;2;
60816;PMS5003;51921;51.518;-3.188;2023-03-25T11:39:36;2;2;
60816;PMS5003;51921;51.518;-3.188;2023-03-25T11:44:27;3;1;
60816;PMS5003;51921;51.518;-3.188;2023-03-25T11:46:53;1;1;
60816;PMS5003;51921;51.518;-3.188;2023-03-25T11:49:18;1;0;
60816;PMS5003;51921;51.518;-3.188;2023-03-25T11:51:43;4;2;
60816;PMS5003;51921;51.518;-3.188;2023-03-25T11:54:10;3;2;
60816;PMS5003;51921;51.518;-3.188;2023-03-25T11:56:34;4;2;
60816;PMS5003;51921;51.518;-3.188;2023-03-25T11:59:00;2;2;
60816;PMS5003;51921;51.518;-3.188;2023-03-25T12:01:26;5;2;
60816;PMS5003;51921;51.518;-3.188;2023-03-25T12:03:50;3;2;
60816;PMS5003;51921;51.518;-3.188;2023-03-25T12:06:17;4;2;
60816;PMS5003;51921;51.518;-3.188;2023-03-25T12:08:43;6;3;
60816;PMS5003;51921;51.518;-3.188;2023-03-25T12:11:07;2;1;
60816;PMS5003;51921;51.518;-3.188;2023-03-25T12:13:34;3;1;
60816;PMS5003;51921;51.518;-3.188;2023-03-25T12:16:00;3;1;
60816;PMS5003;51921;51.518;-3.188;2023-03-25T12:18:31;4;2;
60816;PMS5003;51921;51.518;-3.188;2023-03-25T12:20:52;3;2;
60816;PMS5003;51921;51.518;-3.188;2023-03-25T12:23:16;2;1;
60816;PMS5003;51921;51.518;-3.188;2023-03-25T12:25:42;1;1;
60816;PMS5003;51921;51.518;-3.188;2023-03-25T12:28:14;3;2;
60816;PMS5003;51921;51.518;-3.188;2023-03-25T12:30:36;3;2;
60816;PMS5003;51921;51.518;-3.188;2023-03-25T12:32:57;2;1;
60816;PMS5003;51921;51.518;-3.188;2023-03-25T12:35:23;3;3;
60816;PMS5003;51921;51.518;-3.188;2023-03-25T12:37:51;2;2;
60816;PMS5003;51921;51.518;-3.188;2023-03-25T12:40:18;2;1;
60816;PMS5003;51921;51.518;-3.188;2023-03-25T12:42:39;3;2;
60816;PMS5003;51921;51.518;-3.188;2023-03-25T12:45:08;4;4;
60816;PMS5003;51921;51.518;-3.188;2023-03-25T12:47:29;5;5;
60816;PMS5003;51921;51.518;-3.188;2023-03-25T12:52:20;3;3;
60816;PMS5003;51921;51.518;-3.188;2023-03-25T12:54:48;5;4;
60816;PMS5003;51921;51.518;-3.188;2023-03-25T12:57:13;3;3;
60816;PMS5003;51921;51.518;-3.188;2023-03-25T12:59:39;4;3;
60816;PMS5003;51921;51.518;-3.188;2023-03-25T13:02:03;3;2;
60816;PMS5003;51921;51.518;-3.188;2023-03-25T13:04:32;2;2;
60816;PMS5003;51921;51.518;-3.188;2023-03-25T13:06:53;4;4;
60816;PMS5003;51921;51.518;-3.188;2023-03-25T13:09:18;2;2;
60816;PMS5003;51921;51.518;-3.188;2023-03-25T13:11:43;1;1;
60816;PMS5003;51921;51.518;-3.188;2023-03-25T13:14:08;3;2;
60816;PMS5003;51921;51.518;-3.188;2023-03-25T13:16:33;3;3;
60816;PMS5003;51921;51.518;-3.188;2023-03-25T13:18:59;5;3;
60816;PMS5003;51921;51.518;-3.188;2023-03-25T13:21:24;2;1;
60816;PMS5003;51921;51.518;-3.188;2023-03-25T13:23:51;9;6;
60816;PMS5003;51921;51.518;-3.188;2023-03-25T13:26:16;5;5;
60816;PMS5003;51921;51.518;-3.188;2023-03-25T13:28:40;5;4;
60816;PMS5003;51921;51.518;-3.188;2023-03-25T13:31:05;4;4;
60816;PMS5003;51921;51.518;-3.188;2023-03-25T13:33:31;5;3;
60816;PMS5003;51921;51.518;-3.188;2023-03-25T13:35:57;7;5;
60816;PMS5003;51921;51.518;-3.188;2023-03-25T13:38:23;9;7;
60816;PMS5003;51921;51.518;-3.188;2023-03-25T13:40:49;5;4;
60816;PMS5003;51921;51.518;-3.188;2023-03-25T13:43:15;5;5;
60816;PMS5003;51921;51.518;-3.188;2023-03-25T13:45:38;6;3;
60816;PMS5003;51921;51.518;-3.188;2023-03-25T13:48:03;3;2;
60816;PMS5003;51921;51.518;-3.188;2023-03-25T13:50:29;5;4;
60816;PMS5003;51921;51.518;-3.188;2023-03-25T13:52:55;4;3;
60816;PMS5003;51921;51.518;-3.188;2023-03-25T13:55:19;9;8;
60816;PMS5003;51921;51.518;-3.188;2023-03-25T14:00:17;5;4;
60816;PMS5003;51921;51.518;-3.188;2023-03-25T14:02:38;7;5;
60816;PMS5003;51921;51.518;-3.188;2023-03-25T14:07:35;5;5;
60816;PMS5003;51921;51.518;-3.188;2023-03-25T14:09:56;4;3;
60816;PMS5003;51921;51.518;-3.188;2023-03-25T14:12:18;6;6;
60816;PMS5003;51921;51.518;-3.188;2023-03-25T14:14:43;7;5;
60816;PMS5003;51921;51.518;-3.188;2023-03-25T14:17:07;6;4;
60816;PMS5003;51921;51.518;-3.188;2023-03-25T14:19:33;7;4;
60816;PMS5003;51921;51.518;-3.188;2023-03-25T14:21:59;5;4;
60816;PMS5003;51921;51.518;-3.188;2023-03-25T14:24:25;5;3;
60816;PMS5003;51921;51.518;-3.188;2023-03-25T14:26:50;6;4;
60816;PMS5003;51921;51.518;-3.188;2023-03-25T14:29:18;5;4;
60816;PMS5003;51921;51.518;-3.188;2023-03-25T14:31:40;7;5;
60816;PMS5003;51921;51.518;-3.188;2023-03-25T14:34:11;9;7;
60816;PMS5003;51921;51.518;-3.188;2023-03-25T14:36:30;3;3;
60816;PMS5003;51921;51.518;-3.188;2023-03-25T14:38:56;3;3;
60816;PMS5003;51921;51.518;-3.188;2023-03-25T14:43:50;3;3;
60816;PMS5003;51921;51.518;-3.188;2023-03-25T14:46:13;5;4;
60816;PMS5003;51921;51.518;-3.188;2023-03-25T14:48:40;6;6;
60816;PMS5003;51921;51.518;-3.188;2023-03-25T14:51:12;5;5;
60816;PMS5003;51921;51.518;-3.188;2023-03-25T14:53:29;6;5;
60816;PMS5003;51921;51.518;-3.188;2023-03-25T14:55:54;3;2;
60816;PMS5003;51921;51.518;-3.188;2023-03-25T14:58:21;3;2;
60816;PMS5003;51921;51.518;-3.188;2023-03-25T15:00:48;9;5;
60816;PMS5003;51921;51.518;-3.188;2023-03-25T15:03:11;6;5;
60816;PMS5003;51921;51.518;-3.188;2023-03-25T15:05:36;7;5;
60816;PMS5003;51921;51.518;-3.188;2023-03-25T15:10:28;9;7;
60816;PMS5003;51921;51.518;-3.188;2023-03-25T15:12:55;2;2;
60816;PMS5003;51921;51.518;-3.188;2023-03-25T15:15:25;4;3;
60816;PMS5003;51921;51.518;-3.188;2023-03-25T15:17:44;6;5;
60816;PMS5003;51921;51.518;-3.188;2023-03-25T15:20:11;3;2;
60816;PMS5003;51921;51.518;-3.188;2023-03-25T15:22:34;8;4;
60816;PMS5003;51921;51.518;-3.188;2023-03-25T15:25:00;4;4;
60816;PMS5003;51921;51.518;-3.188;2023-03-25T15:27:29;8;6;
60816;PMS5003;51921;51.518;-3.188;2023-03-25T15:29:53;5;4;
60816;PMS5003;51921;51.518;-3.188;2023-03-25T15:32:20;8;7;
60816;PMS5003;51921;51.518;-3.188;2023-03-25T15:34:43;6;5;
60816;PMS5003;51921;51.518;-3.188;2023-03-25T15:37:14;4;3;
60816;PMS5003;51921;51.518;-3.188;2023-03-25T15:39:35;4;4;
60816;PMS5003;51921;51.518;-3.188;2023-03-25T15:42:04;5;4;
60816;PMS5003;51921;51.518;-3.188;2023-03-25T15:44:37;8;7;
60816;PMS5003;51921;51.518;-3.188;2023-03-25T15:46:52;7;5;
60816;PMS5003;51921;51.518;-3.188;2023-03-25T15:49:24;6;4;
60816;PMS5003;51921;51.518;-3.188;2023-03-25T15:51:42;3;2;
60816;PMS5003;51921;51.518;-3.188;2023-03-25T15:56:30;5;4;
60816;PMS5003;51921;51.518;-3.188;2023-03-25T15:58:56;3;3;
60816;PMS5003;51921;51.518;-3.188;2023-03-25T16:01:22;2;2;
60816;PMS5003;51921;51.518;-3.188;2023-03-25T16:03:46;4;3;
60816;PMS5003;51921;51.518;-3.188;2023-03-25T16:06:13;1;1;
60816;PMS5003;51921;51.518;-3.188;2023-03-25T16:08:38;2;2;
60816;PMS5003;51921;51.518;-3.188;2023-03-25T16:13:28;2;2;
60816;PMS5003;51921;51.518;-3.188;2023-03-25T16:15:54;2;1;
60816;PMS5003;51921;51.518;-3.188;2023-03-25T16:18:19;2;2;
60816;PMS5003;51921;51.518;-3.188;2023-03-25T16:20:44;2;2;
60816;PMS5003;51921;51.518;-3.188;2023-03-25T16:23:12;1;1;
60816;PMS5003;51921;51.518;-3.188;2023-03-25T16:25:35;1;1;
60816;PMS5003;51921;51.518;-3.188;2023-03-25T16:28:00;4;4;
60816;PMS5003;51921;51.518;-3.188;2023-03-25T16:30:26;9;7;
60816;PMS5003;51921;51.518;-3.188;2023-03-25T16:32:51;5;3;
60816;PMS5003;51921;51.518;-3.188;2023-03-25T16:35:20;7;5;
60816;PMS5003;51921;51.518;-3.188;2023-03-25T16:37:41;5;4;